DW5978 Whyalla SA AU current weather conditions

sailwx.info

Wind from 174 at 5 knots gusting 11

Air temperature 13.9° C
Dewpoint 5.8° C

Last reported at 2017-Aug-24 06:06 UTC.
Time now 2017-Aug-24 06:55 UTC

Location: S 33°01' E 137°32'.
View on Google Maps.

See reports from other nearby stations

  
Tides and Currents Weather Stations Pressure Air Temp Water Temp Dewpoint Dewpoint Depression Visibility Wind Speed Wind Dir Waves Ship Positions
date/time (UTC)wind fromknots sea level pressurealtimeterstation pressurevisibilityair tempwater tempwave heightnotes
2017-Aug-24 06:06 174 5 gusting 11 13.9
2017-Aug-24 05:50 145 6 gusting 11 13.9
2017-Aug-24 05:35 180 6 gusting 12 13.3
2017-Aug-24 05:21 233 6 gusting 10 13.3
2017-Aug-24 05:05 204 5 gusting 11 13.9
2017-Aug-24 04:50 204 4 gusting 12 13.3
2017-Aug-24 04:35 221 3 gusting 8 13.9
2017-Aug-24 04:20 194 6 gusting 11 14.4
2017-Aug-24 04:05 233 3 gusting 7 13.3
2017-Aug-24 03:50 166 3 gusting 7 13.9
2017-Aug-24 03:35 204 3 gusting 6 13.9
2017-Aug-24 03:20 224 4 gusting 8 13.9
2017-Aug-24 03:05 192 4 gusting 8 13.9
2017-Aug-24 02:50 197 3 gusting 10 13.9
2017-Aug-24 02:35 188 3 gusting 8 14.4
2017-Aug-24 02:20 218 4 gusting 7 13.9
2017-Aug-24 02:05 179 2 gusting 5 13.3
2017-Aug-24 01:50 228 3 gusting 9 13.3
2017-Aug-24 01:35 239 5 gusting 9 12.8
2017-Aug-24 01:20 204 4 gusting 10 12.8
2017-Aug-24 01:05 236 4 gusting 8 12.8
2017-Aug-24 00:50 231 2 gusting 6 12.2
2017-Aug-24 00:35 204 2 gusting 6 12.2
2017-Aug-24 00:20 290 3 gusting 6 12.8
2017-Aug-24 00:05 259 2 gusting 6 11.7
2017-Aug-23 23:50 322 2 gusting 4 10.6
2017-Aug-23 23:35 312 2 gusting 6 10.0
2017-Aug-23 23:20 345 2 gusting 5 9.4
2017-Aug-23 23:05 318 2 gusting 6 8.9
2017-Aug-23 22:49 339 1 gusting 5 8.3
2017-Aug-23 22:34 307 2 gusting 4 7.8
2017-Aug-23 22:19 345 0 gusting 2 7.2
2017-Aug-23 22:04 315 0 gusting 2 6.7
2017-Aug-23 21:49 297 1 gusting 2 6.1
2017-Aug-23 21:34 315 1 gusting 3 6.1
2017-Aug-23 21:19 335 1 gusting 3 6.1
2017-Aug-23 21:04 347 6.1
2017-Aug-23 20:49 335 0 gusting 2 6.1
2017-Aug-23 20:34 335 0 gusting 2 5.6
2017-Aug-23 20:19 335 0 gusting 1 5.6
2017-Aug-23 20:04 335 0 gusting 3 5.0
2017-Aug-23 19:49 353 0 gusting 2 4.4
2017-Aug-23 19:34 353 1 gusting 2 4.4
2017-Aug-23 19:19 353 0 gusting 3 4.4
2017-Aug-23 19:04 066 0 gusting 2 4.4
2017-Aug-23 18:49 122 0 gusting 2 4.4
2017-Aug-23 18:34 151 0 gusting 2 5.6
2017-Aug-23 18:19 180 5.0
2017-Aug-23 18:04 180 5.6
2017-Aug-23 17:49 180 6.1
2017-Aug-23 17:34 180 0 gusting 1 5.6
2017-Aug-23 17:19 180 5.6
2017-Aug-23 17:04 272 6.1
2017-Aug-23 16:49 272 5.6
2017-Aug-23 16:34 272 5.6
2017-Aug-23 16:19 280 6.1
2017-Aug-23 16:04 280 5.6
2017-Aug-23 15:49 268 5.6
2017-Aug-23 15:34 268 6.1
2017-Aug-23 15:19 271 6.1
2017-Aug-23 15:03 291 5.6
2017-Aug-23 14:48 291 6.1
2017-Aug-23 14:34 291 6.1
2017-Aug-23 14:18 291 6.1
2017-Aug-23 14:03 284 6.1
2017-Aug-23 13:48 284 5.6
2017-Aug-23 13:33 284 6.7
2017-Aug-23 13:18 284 6.7
2017-Aug-23 13:03 258 6.7
2017-Aug-23 12:48 254 7.2
2017-Aug-23 12:33 251 0 gusting 2 8.3
2017-Aug-23 12:18 241 0 gusting 3 8.9
2017-Aug-23 12:03 237 1 gusting 3 8.9
2017-Aug-23 11:48 235 8.9
2017-Aug-23 11:33 224 1 gusting 2 10.0
2017-Aug-23 11:18 214 0 gusting 1 11.1
2017-Aug-23 11:03 214 0 gusting 2 11.1
2017-Aug-23 10:48 214 11.7
2017-Aug-23 10:33 214 2 gusting 6 12.2
2017-Aug-23 10:18 225 2 gusting 6 12.2
2017-Aug-23 10:03 204 3 gusting 9 12.8
2017-Aug-23 09:48 197 3 gusting 9 12.8
2017-Aug-23 09:33 204 4 gusting 11 12.8
2017-Aug-23 09:18 185 3 gusting 12 12.8
2017-Aug-23 09:03 209 3 gusting 7 12.8
2017-Aug-23 08:48 204 5 gusting 10 13.3
2017-Aug-23 08:33 214 6 gusting 10 13.3
2017-Aug-23 08:18 190 6 gusting 12 13.3
2017-Aug-23 08:03 174 5 gusting 9 13.3
2017-Aug-23 07:48 214 6 gusting 10 13.3
2017-Aug-23 07:33 214 6 gusting 13 13.9
2017-Aug-23 07:17 209 4 gusting 8 14.4
2017-Aug-23 07:02 162 6 gusting 11 15.0
2017-Aug-23 06:48 189 3 gusting 10 15.6
2017-Aug-23 06:33 179 2 gusting 6 16.1
2017-Aug-23 06:17 179 4 gusting 11 15.6
2017-Aug-23 06:02 185 5 gusting 11 15.6
2017-Aug-23 05:48 204 6 gusting 10 16.7
2017-Aug-23 05:32 193 4 gusting 9 16.7
2017-Aug-23 05:18 173 6 gusting 11 17.2
2017-Aug-23 05:03 172 6 gusting 10 18.3
2017-Aug-23 04:48 157 4 gusting 6 18.9
2017-Aug-23 04:32 173 2 gusting 9 18.9
2017-Aug-23 04:17 188 4 gusting 18 19.4
2017-Aug-23 04:02 218 6 gusting 13 20.6
2017-Aug-23 03:47 241 9 gusting 15 20.6
2017-Aug-23 03:32 239 6 gusting 13 20.6
2017-Aug-23 03:17 262 6 gusting 14 20.6
2017-Aug-23 03:02 285 10 gusting 14 20.6
2017-Aug-23 02:47 286 10 gusting 14 20.6
2017-Aug-23 02:33 308 3 gusting 20 20.0
2017-Aug-23 02:17 338 6 gusting 10 19.4
2017-Aug-23 02:02 320 3 gusting 9 18.9
2017-Aug-23 01:47 326 4 gusting 12 18.3
2017-Aug-23 01:32 304 3 gusting 10 17.8
2017-Aug-23 01:17 002 4 gusting 9 17.8
2017-Aug-23 01:02 351 6 gusting 12 17.2
2017-Aug-23 00:47 342 6 gusting 12 16.1
2017-Aug-23 00:32 328 5 gusting 9 16.1
2017-Aug-23 00:17 346 4 gusting 8 15.6
2017-Aug-23 00:02 325 3 gusting 8 14.4
2017-Aug-22 23:47 320 4 gusting 8 13.3
2017-Aug-22 23:32 345 5 gusting 7 12.2
2017-Aug-22 23:17 320 3 gusting 7 11.1
2017-Aug-22 23:02 355 6 gusting 9 10.6
2017-Aug-22 22:47 343 6 gusting 11 10.0
2017-Aug-22 22:32 355 7 gusting 10 9.4
2017-Aug-22 22:16 360 4 gusting 9 8.9
2017-Aug-22 22:01 001 5 gusting 7 7.8
2017-Aug-22 21:46 337 0 gusting 2 6.1
2017-Aug-22 21:31 323 1 gusting 2 5.0
2017-Aug-22 21:16 323 5.0
2017-Aug-22 21:01 323 5.6
2017-Aug-22 20:46 323 0 gusting 2 6.1
2017-Aug-22 20:31 323 1 gusting 3 6.1
2017-Aug-22 20:16 339 1 gusting 3 6.1
2017-Aug-22 20:01 339 2 gusting 4 6.1
2017-Aug-22 19:46 345 3 gusting 5 6.7
2017-Aug-22 19:31 340 1 gusting 4 6.1
2017-Aug-22 19:16 316 3 gusting 6 7.2
2017-Aug-22 19:01 338 4 gusting 7 7.2
2017-Aug-22 18:46 347 4 gusting 6 7.2
2017-Aug-22 18:31 338 2 gusting 4 6.7
2017-Aug-22 18:16 326 3 gusting 4 6.7
2017-Aug-22 18:01 326 3 gusting 4 6.7
2017-Aug-22 17:46 328 1 gusting 2 7.2
2017-Aug-22 17:31 351 1 gusting 2 7.8
2017-Aug-22 17:16 351 1 gusting 3 7.8
2017-Aug-22 17:01 351 2 gusting 4 8.3
2017-Aug-22 16:46 347 2 gusting 3 7.2
2017-Aug-22 16:31 347 1 gusting 2 7.2
2017-Aug-22 16:16 347 0 gusting 3 6.7
2017-Aug-22 16:01 347 1 gusting 3 6.7
2017-Aug-22 15:46 341 1 gusting 2 7.2
2017-Aug-22 15:31 341 0 gusting 2 7.8
2017-Aug-22 15:16 347 2 gusting 4 7.2
2017-Aug-22 15:01 346 2 gusting 4 7.2
2017-Aug-22 14:47 345 2 gusting 3 7.2
2017-Aug-22 14:00 343 6.7
2017-Aug-22 13:45 343 7.2
2017-Aug-22 13:30 343 7.8
2017-Aug-22 13:15 343 1 gusting 3 7.8
2017-Aug-22 13:00 307 2 gusting 4 8.3
2017-Aug-22 12:45 315 1 gusting 6 8.3
2017-Aug-22 12:30 276 3 gusting 8 11.1
2017-Aug-22 12:15 047 3 gusting 6 12.2
2017-Aug-22 12:00 356 10.6
2017-Aug-22 11:45 072 4 gusting 7 12.2
2017-Aug-22 11:30 061 4 gusting 7 12.2
2017-Aug-22 11:15 049 0 gusting 6 10.0
2017-Aug-22 11:00 349 10.6
2017-Aug-22 10:45 073 10.6
2017-Aug-22 10:30 078 10.6
2017-Aug-22 10:15 078 11.1
2017-Aug-22 10:00 078 11.1
2017-Aug-22 09:45 078 1 gusting 3 10.6
2017-Aug-22 09:30 078 1 gusting 3 11.1
2017-Aug-22 09:15 095 1 gusting 3 11.7
2017-Aug-22 09:00 095 0 gusting 3 12.2
2017-Aug-22 08:45 106 0 gusting 3 12.8
2017-Aug-22 08:30 116 0 gusting 3 13.3
2017-Aug-22 08:15 115 0 gusting 5 13.9
2017-Aug-22 08:00 097 3 gusting 5 14.4
2017-Aug-22 07:45 128 2 gusting 6 14.4
2017-Aug-22 07:30 146 4 gusting 7 15.0
2017-Aug-22 07:15 133 4 gusting 8 15.0
2017-Aug-22 07:01 130 2 gusting 7 15.0
2017-Aug-22 06:45 158 2 gusting 7 15.6
2017-Aug-22 06:30 125 3 gusting 7 15.6
2017-Aug-22 06:15 150 4 gusting 9 15.6
2017-Aug-22 06:09 120 4 gusting 7 15.6